Time;durP1;ratioP1;P1;durP2;ratioP2;P2;SDS_P1;SDS_P2;PMS_P1;PMS_P2;Temp;Humidity;BMP_temperature;BMP_pressure;BME280_temperature;BME280_humidity;BME280_pressure;Samples;Min_cycle;Max_cycle;Signal;HPM_P1;HPM_P2
2024/04/21 00:00:00;;;;;;;3.8;3;;;;;;;;;;;;;
2024/04/21 00:02:25;;;;;;;3.6;3.1;;;;;;;;;;;;;
2024/04/21 00:04:50;;;;;;;3.3;2.8;;;;;;;;;;;;;
2024/04/21 00:07:15;;;;;;;2.9;2.2;;;;;;;;;;;;;
2024/04/21 00:09:40;;;;;;;3.5;2.7;;;;;;;;;;;;;
2024/04/21 00:12:06;;;;;;;2.6;2.4;;;;;;;;;;;;;
2024/04/21 00:14:31;;;;;;;2.6;2.2;;;;;;;;;;;;;
2024/04/21 00:16:56;;;;;;;2.5;2.2;;;;;;;;;;;;;
2024/04/21 00:19:21;;;;;;;2.9;2.2;;;;;;;;;;;;;
2024/04/21 00:21:46;;;;;;;2.4;2.1;;;;;;;;;;;;;
2024/04/21 00:24:11;;;;;;;2.2;1.9;;;;;;;;;;;;;
2024/04/21 00:26:37;;;;;;;2.6;2.2;;;;;;;;;;;;;
2024/04/21 00:29:02;;;;;;;2.7;2.1;;;;;;;;;;;;;
2024/04/21 00:31:27;;;;;;;2.8;2;;;;;;;;;;;;;
2024/04/21 00:33:52;;;;;;;2.2;2;;;;;;;;;;;;;
2024/04/21 00:36:17;;;;;;;2.4;2.2;;;;;;;;;;;;;
2024/04/21 00:38:42;;;;;;;1.7;1.6;;;;;;;;;;;;;
2024/04/21 00:41:09;;;;;;;3.8;3.5;;;;;;;;;;;;;
2024/04/21 00:43:32;;;;;;;2.5;2.3;;;;;;;;;;;;;
2024/04/21 00:45:57;;;;;;;1.9;1.8;;;;;;;;;;;;;
2024/04/21 00:48:23;;;;;;;2.8;1.7;;;;;;;;;;;;;
2024/04/21 00:50:48;;;;;;;2.1;1.6;;;;;;;;;;;;;
2024/04/21 00:53:13;;;;;;;3.2;1.4;;;;;;;;;;;;;
2024/04/21 00:55:38;;;;;;;2.3;1.7;;;;;;;;;;;;;
2024/04/21 00:58:03;;;;;;;2.3;1.5;;;;;;;;;;;;;
2024/04/21 01:00:28;;;;;;;3;1.7;;;;;;;;;;;;;
2024/04/21 01:02:53;;;;;;;1.6;1.5;;;;;;;;;;;;;
2024/04/21 01:05:18;;;;;;;1.5;1.3;;;;;;;;;;;;;
2024/04/21 01:07:43;;;;;;;1.3;1.2;;;;;;;;;;;;;
2024/04/21 01:10:09;;;;;;;1.3;1.2;;;;;;;;;;;;;
2024/04/21 01:12:34;;;;;;;1.5;1.3;;;;;;;;;;;;;
2024/04/21 01:14:59;;;;;;;2.1;1.5;;;;;;;;;;;;;
2024/04/21 01:17:24;;;;;;;2;1.4;;;;;;;;;;;;;
2024/04/21 01:19:49;;;;;;;1.4;1.3;;;;;;;;;;;;;
2024/04/21 01:22:14;;;;;;;1.8;1.5;;;;;;;;;;;;;
2024/04/21 01:24:39;;;;;;;1.3;1.2;;;;;;;;;;;;;
2024/04/21 01:27:04;;;;;;;1.6;1.5;;;;;;;;;;;;;
2024/04/21 01:29:30;;;;;;;1.5;1.3;;;;;;;;;;;;;
2024/04/21 01:31:54;;;;;;;1.7;1.4;;;;;;;;;;;;;
2024/04/21 01:34:19;;;;;;;2.1;1.7;;;;;;;;;;;;;
2024/04/21 01:36:45;;;;;;;1.7;1.6;;;;;;;;;;;;;
2024/04/21 01:39:10;;;;;;;1.6;1.5;;;;;;;;;;;;;
2024/04/21 01:41:35;;;;;;;1.6;1.3;;;;;;;;;;;;;
2024/04/21 01:44:00;;;;;;;1.5;1.4;;;;;;;;;;;;;
2024/04/21 01:46:25;;;;;;;2.5;1.3;;;;;;;;;;;;;
2024/04/21 01:48:50;;;;;;;2;1.7;;;;;;;;;;;;;
2024/04/21 01:51:15;;;;;;;1.5;1.4;;;;;;;;;;;;;
2024/04/21 01:53:40;;;;;;;1.6;1.5;;;;;;;;;;;;;
2024/04/21 01:56:05;;;;;;;1.8;1.5;;;;;;;;;;;;;
2024/04/21 01:58:31;;;;;;;1.6;1.3;;;;;;;;;;;;;
2024/04/21 02:00:56;;;;;;;1.5;1.4;;;;;;;;;;;;;
2024/04/21 02:03:21;;;;;;;1.6;1.5;;;;;;;;;;;;;
2024/04/21 02:05:46;;;;;;;1.7;1.6;;;;;;;;;;;;;
2024/04/21 02:08:12;;;;;;;6.9;4.7;;;;;;;;;;;;;
2024/04/21 02:10:36;;;;;;;10.5;7;;;;;;;;;;;;;
2024/04/21 02:13:01;;;;;;;11.1;6.6;;;;;;;;;;;;;
2024/04/21 02:15:26;;;;;;;2.8;2.1;;;;;;;;;;;;;
2024/04/21 02:17:51;;;;;;;2.7;1.8;;;;;;;;;;;;;
2024/04/21 02:20:17;;;;;;;2.1;1.9;;;;;;;;;;;;;
2024/04/21 02:22:42;;;;;;;2.4;1.9;;;;;;;;;;;;;
2024/04/21 02:25:07;;;;;;;2.1;1.6;;;;;;;;;;;;;
2024/04/21 02:27:32;;;;;;;1.8;1.7;;;;;;;;;;;;;
2024/04/21 02:29:57;;;;;;;1.7;1.6;;;;;;;;;;;;;
2024/04/21 02:32:22;;;;;;;1.4;1.3;;;;;;;;;;;;;
2024/04/21 02:34:47;;;;;;;1.4;1.3;;;;;;;;;;;;;
2024/04/21 02:37:13;;;;;;;1.3;1.2;;;;;;;;;;;;;
2024/04/21 02:39:37;;;;;;;1.5;1.4;;;;;;;;;;;;;
2024/04/21 02:42:02;;;;;;;1.8;1.7;;;;;;;;;;;;;
2024/04/21 02:44:28;;;;;;;1.6;1.5;;;;;;;;;;;;;
2024/04/21 02:46:53;;;;;;;1.8;1.7;;;;;;;;;;;;;
2024/04/21 02:49:18;;;;;;;1.6;1.5;;;;;;;;;;;;;
2024/04/21 02:51:43;;;;;;;1.7;1.6;;;;;;;;;;;;;
2024/04/21 02:54:08;;;;;;;2;1.8;;;;;;;;;;;;;
2024/04/21 02:56:33;;;;;;;2.2;1.8;;;;;;;;;;;;;
2024/04/21 02:58:59;;;;;;;2.1;1.9;;;;;;;;;;;;;
2024/04/21 03:01:24;;;;;;;2.2;2;;;;;;;;;;;;;
2024/04/21 03:03:49;;;;;;;2.3;2.1;;;;;;;;;;;;;
2024/04/21 03:06:14;;;;;;;3.8;1.8;;;;;;;;;;;;;
2024/04/21 03:08:39;;;;;;;2.5;1.9;;;;;;;;;;;;;
2024/04/21 03:11:04;;;;;;;1.9;1.8;;;;;;;;;;;;;
2024/04/21 03:13:29;;;;;;;2.4;2.2;;;;;;;;;;;;;
2024/04/21 03:15:54;;;;;;;3.8;2.8;;;;;;;;;;;;;
2024/04/21 03:18:20;;;;;;;2.9;2.7;;;;;;;;;;;;;
2024/04/21 03:20:44;;;;;;;3.8;2.9;;;;;;;;;;;;;
2024/04/21 03:23:10;;;;;;;2.8;2.5;;;;;;;;;;;;;
2024/04/21 03:25:35;;;;;;;2.8;2.5;;;;;;;;;;;;;
2024/04/21 03:28:00;;;;;;;2.7;2.1;;;;;;;;;;;;;
2024/04/21 03:30:25;;;;;;;2.3;2.1;;;;;;;;;;;;;
2024/04/21 03:32:50;;;;;;;2.7;2.1;;;;;;;;;;;;;
2024/04/21 03:35:16;;;;;;;2.3;2.1;;;;;;;;;;;;;
2024/04/21 03:37:41;;;;;;;3.3;2.9;;;;;;;;;;;;;
2024/04/21 03:40:06;;;;;;;2.9;2.5;;;;;;;;;;;;;
2024/04/21 03:42:31;;;;;;;2.5;2.2;;;;;;;;;;;;;
2024/04/21 03:44:56;;;;;;;2;1.9;;;;;;;;;;;;;
2024/04/21 03:47:21;;;;;;;2.5;2.3;;;;;;;;;;;;;
2024/04/21 03:49:49;;;;;;;2.8;1.9;;;;;;;;;;;;;
2024/04/21 03:52:14;;;;;;;1.7;1.6;;;;;;;;;;;;;
2024/04/21 03:54:40;;;;;;;1.5;1.4;;;;;;;;;;;;;
2024/04/21 03:57:05;;;;;;;1.6;1.4;;;;;;;;;;;;;
2024/04/21 03:59:30;;;;;;;2.2;2;;;;;;;;;;;;;
2024/04/21 04:02:31;;;;;;;3.8;2.3;;;;;;;;;;;;;
2024/04/21 04:04:56;;;;;;;6.4;3.5;;;;;;;;;;;;;
2024/04/21 04:07:22;;;;;;;5.6;3.1;;;;;;;;;;;;;
2024/04/21 04:09:46;;;;;;;2.4;2;;;;;;;;;;;;;
2024/04/21 04:12:11;;;;;;;1.8;1.7;;;;;;;;;;;;;
2024/04/21 04:14:37;;;;;;;2.9;1.9;;;;;;;;;;;;;
2024/04/21 04:17:02;;;;;;;1.7;1.6;;;;;;;;;;;;;
2024/04/21 04:19:27;;;;;;;2.5;1.9;;;;;;;;;;;;;
2024/04/21 04:21:52;;;;;;;1.7;1.6;;;;;;;;;;;;;
2024/04/21 04:24:17;;;;;;;2.2;2;;;;;;;;;;;;;
2024/04/21 04:26:42;;;;;;;2.2;2;;;;;;;;;;;;;
2024/04/21 04:29:07;;;;;;;2.1;1.9;;;;;;;;;;;;;
2024/04/21 04:31:32;;;;;;;3.9;2.7;;;;;;;;;;;;;
2024/04/21 04:33:57;;;;;;;3.3;2.5;;;;;;;;;;;;;
2024/04/21 04:36:23;;;;;;;2.9;2.2;;;;;;;;;;;;;
2024/04/21 04:38:48;;;;;;;4.1;2.3;;;;;;;;;;;;;
2024/04/21 04:41:13;;;;;;;3.6;2.1;;;;;;;;;;;;;
2024/04/21 04:43:38;;;;;;;2.4;2;;;;;;;;;;;;;
2024/04/21 04:46:03;;;;;;;2.5;2.1;;;;;;;;;;;;;
2024/04/21 04:48:29;;;;;;;3;2.3;;;;;;;;;;;;;
2024/04/21 04:50:54;;;;;;;3.1;2.8;;;;;;;;;;;;;
2024/04/21 04:53:19;;;;;;;2.5;2.3;;;;;;;;;;;;;
2024/04/21 04:55:44;;;;;;;2.1;1.9;;;;;;;;;;;;;
2024/04/21 04:58:09;;;;;;;2.4;2.2;;;;;;;;;;;;;
2024/04/21 05:00:34;;;;;;;2.4;2.2;;;;;;;;;;;;;
2024/04/21 05:02:59;;;;;;;3.4;3;;;;;;;;;;;;;
2024/04/21 05:05:25;;;;;;;4.8;3;;;;;;;;;;;;;
2024/04/21 05:07:49;;;;;;;3.4;2.8;;;;;;;;;;;;;
2024/04/21 05:10:15;;;;;;;5.8;4.2;;;;;;;;;;;;;
2024/04/21 05:12:40;;;;;;;3.7;3.3;;;;;;;;;;;;;
2024/04/21 05:15:05;;;;;;;5.1;4.1;;;;;;;;;;;;;
2024/04/21 05:17:30;;;;;;;4.8;4.1;;;;;;;;;;;;;
2024/04/21 05:19:55;;;;;;;4.8;4.3;;;;;;;;;;;;;
2024/04/21 05:22:20;;;;;;;5.4;4;;;;;;;;;;;;;
2024/04/21 05:24:46;;;;;;;3.5;3.2;;;;;;;;;;;;;
2024/04/21 05:27:13;;;;;;;3.4;3;;;;;;;;;;;;;
2024/04/21 05:29:38;;;;;;;3.2;2.5;;;;;;;;;;;;;
2024/04/21 05:32:01;;;;;;;2.3;2.1;;;;;;;;;;;;;
2024/04/21 05:34:26;;;;;;;2.8;2.5;;;;;;;;;;;;;
2024/04/21 05:36:51;;;;;;;3;2.8;;;;;;;;;;;;;
2024/04/21 05:39:16;;;;;;;3.7;3.1;;;;;;;;;;;;;
2024/04/21 05:41:42;;;;;;;3.6;3.3;;;;;;;;;;;;;
2024/04/21 05:44:07;;;;;;;3.5;3.2;;;;;;;;;;;;;
2024/04/21 05:46:35;;;;;;;3.1;2.9;;;;;;;;;;;;;
2024/04/21 05:49:00;;;;;;;3.9;2.8;;;;;;;;;;;;;
2024/04/21 05:51:22;;;;;;;3.2;2.7;;;;;;;;;;;;;
2024/04/21 05:53:47;;;;;;;3.4;3;;;;;;;;;;;;;
2024/04/21 05:56:12;;;;;;;3;2.7;;;;;;;;;;;;;
2024/04/21 05:58:37;;;;;;;3.1;2.8;;;;;;;;;;;;;
2024/04/21 06:01:03;;;;;;;2.7;2.5;;;;;;;;;;;;;
2024/04/21 06:03:27;;;;;;;2.7;2.4;;;;;;;;;;;;;
2024/04/21 06:05:53;;;;;;;11.1;8.5;;;;;;;;;;;;;
2024/04/21 06:08:18;;;;;;;9.4;7.6;;;;;;;;;;;;;
2024/04/21 06:10:43;;;;;;;5.5;3.8;;;;;;;;;;;;;
2024/04/21 06:13:08;;;;;;;3.6;3.3;;;;;;;;;;;;;
2024/04/21 06:15:33;;;;;;;3.3;3;;;;;;;;;;;;;
2024/04/21 06:17:58;;;;;;;3.7;2.9;;;;;;;;;;;;;
2024/04/21 06:20:23;;;;;;;3.7;3.2;;;;;;;;;;;;;
2024/04/21 06:22:48;;;;;;;3;2.7;;;;;;;;;;;;;
2024/04/21 06:25:13;;;;;;;2.6;2.4;;;;;;;;;;;;;
2024/04/21 06:27:38;;;;;;;2.9;2.7;;;;;;;;;;;;;
2024/04/21 06:30:03;;;;;;;15.8;11.6;;;;;;;;;;;;;
2024/04/21 06:32:29;;;;;;;3.9;3.4;;;;;;;;;;;;;
2024/04/21 06:34:54;;;;;;;2.4;2.2;;;;;;;;;;;;;
2024/04/21 06:37:19;;;;;;;1.8;1.7;;;;;;;;;;;;;
2024/04/21 06:39:44;;;;;;;1.6;1.5;;;;;;;;;;;;;
2024/04/21 06:42:09;;;;;;;2.6;1.6;;;;;;;;;;;;;
2024/04/21 06:44:34;;;;;;;1.9;1.8;;;;;;;;;;;;;
2024/04/21 06:46:59;;;;;;;1.4;1.3;;;;;;;;;;;;;
2024/04/21 06:49:25;;;;;;;1.4;1.3;;;;;;;;;;;;;
2024/04/21 06:51:50;;;;;;;1.4;1.3;;;;;;;;;;;;;
2024/04/21 06:54:15;;;;;;;1.6;1.5;;;;;;;;;;;;;
2024/04/21 06:56:41;;;;;;;1.2;1.1;;;;;;;;;;;;;
2024/04/21 06:59:05;;;;;;;1.2;1.1;;;;;;;;;;;;;
2024/04/21 07:01:30;;;;;;;0.7;0.7;;;;;;;;;;;;;
2024/04/21 07:03:55;;;;;;;2.6;1.1;;;;;;;;;;;;;
2024/04/21 07:06:20;;;;;;;0.8;0.8;;;;;;;;;;;;;
2024/04/21 07:08:45;;;;;;;1.2;0.9;;;;;;;;;;;;;
2024/04/21 07:11:11;;;;;;;1.2;1;;;;;;;;;;;;;
2024/04/21 07:13:36;;;;;;;1.3;1.2;;;;;;;;;;;;;
2024/04/21 07:16:01;;;;;;;1.4;1.3;;;;;;;;;;;;;
2024/04/21 07:18:26;;;;;;;1.4;1.3;;;;;;;;;;;;;
2024/04/21 07:20:51;;;;;;;1.3;1.2;;;;;;;;;;;;;
2024/04/21 07:23:16;;;;;;;1.4;1.1;;;;;;;;;;;;;
2024/04/21 07:25:41;;;;;;;1.4;1.1;;;;;;;;;;;;;
2024/04/21 07:28:06;;;;;;;1.3;1.2;;;;;;;;;;;;;
2024/04/21 07:30:32;;;;;;;1.1;1.1;;;;;;;;;;;;;
2024/04/21 07:32:56;;;;;;;1.2;0.9;;;;;;;;;;;;;
2024/04/21 07:35:21;;;;;;;1.3;0.8;;;;;;;;;;;;;
2024/04/21 07:37:46;;;;;;;1.3;0.9;;;;;;;;;;;;;
2024/04/21 07:40:13;;;;;;;1.2;0.9;;;;;;;;;;;;;
2024/04/21 07:42:37;;;;;;;18.9;7.1;;;;;;;;;;;;;
2024/04/21 07:45:02;;;;;;;6.3;2.5;;;;;;;;;;;;;
2024/04/21 07:47:27;;;;;;;3.6;2;;;;;;;;;;;;;
2024/04/21 07:49:52;;;;;;;3.4;2;;;;;;;;;;;;;
2024/04/21 07:52:17;;;;;;;17;6.9;;;;;;;;;;;;;
2024/04/21 07:54:42;;;;;;;0.9;0.9;;;;;;;;;;;;;
2024/04/21 07:57:08;;;;;;;1.1;1.1;;;;;;;;;;;;;
2024/04/21 07:59:33;;;;;;;6.4;2.7;;;;;;;;;;;;;
2024/04/21 08:01:58;;;;;;;3.2;1.5;;;;;;;;;;;;;
2024/04/21 08:04:23;;;;;;;1.7;1.6;;;;;;;;;;;;;
2024/04/21 08:06:48;;;;;;;1.8;1.3;;;;;;;;;;;;;
2024/04/21 08:09:13;;;;;;;0.8;0.8;;;;;;;;;;;;;
2024/04/21 08:11:38;;;;;;;1.4;1.1;;;;;;;;;;;;;
2024/04/21 08:14:03;;;;;;;1.6;1.3;;;;;;;;;;;;;
2024/04/21 08:16:28;;;;;;;1.3;1.1;;;;;;;;;;;;;
2024/04/21 08:18:53;;;;;;;1.1;0.9;;;;;;;;;;;;;
2024/04/21 08:21:18;;;;;;;1;1;;;;;;;;;;;;;
2024/04/21 08:23:44;;;;;;;0.6;0.6;;;;;;;;;;;;;
2024/04/21 08:26:10;;;;;;;0.5;0.5;;;;;;;;;;;;;
2024/04/21 08:28:34;;;;;;;1;0.7;;;;;;;;;;;;;
2024/04/21 08:30:59;;;;;;;0.7;0.6;;;;;;;;;;;;;
2024/04/21 08:33:25;;;;;;;0.4;0.4;;;;;;;;;;;;;
2024/04/21 08:35:51;;;;;;;0.5;0.5;;;;;;;;;;;;;
2024/04/21 08:38:15;;;;;;;0.5;0.5;;;;;;;;;;;;;
2024/04/21 08:40:40;;;;;;;0.6;0.6;;;;;;;;;;;;;
2024/04/21 08:43:05;;;;;;;0.7;0.7;;;;;;;;;;;;;
2024/04/21 08:45:31;;;;;;;0.7;0.6;;;;;;;;;;;;;
2024/04/21 08:47:56;;;;;;;0.6;0.6;;;;;;;;;;;;;
2024/04/21 08:50:21;;;;;;;0.6;0.6;;;;;;;;;;;;;
2024/04/21 08:52:48;;;;;;;0.6;0.6;;;;;;;;;;;;;
2024/04/21 08:55:11;;;;;;;0.7;0.6;;;;;;;;;;;;;
2024/04/21 08:57:36;;;;;;;0.6;0.6;;;;;;;;;;;;;
2024/04/21 09:00:01;;;;;;;1.5;0.6;;;;;;;;;;;;;
2024/04/21 09:02:26;;;;;;;0.5;0.5;;;;;;;;;;;;;
2024/04/21 09:04:51;;;;;;;1.1;0.5;;;;;;;;;;;;;
2024/04/21 09:07:16;;;;;;;4.8;2.5;;;;;;;;;;;;;
2024/04/21 09:09:42;;;;;;;0.7;0.7;;;;;;;;;;;;;
2024/04/21 09:12:07;;;;;;;4.5;2.3;;;;;;;;;;;;;
2024/04/21 09:14:32;;;;;;;0.8;0.6;;;;;;;;;;;;;
2024/04/21 09:16:57;;;;;;;0.7;0.7;;;;;;;;;;;;;
2024/04/21 09:19:22;;;;;;;0.5;0.5;;;;;;;;;;;;;
2024/04/21 09:21:47;;;;;;;1;0.6;;;;;;;;;;;;;
2024/04/21 09:24:12;;;;;;;1.1;0.9;;;;;;;;;;;;;
2024/04/21 09:26:38;;;;;;;0.5;0.5;;;;;;;;;;;;;
2024/04/21 09:29:03;;;;;;;1;0.9;;;;;;;;;;;;;
2024/04/21 09:31:28;;;;;;;0.7;0.7;;;;;;;;;;;;;
2024/04/21 09:33:53;;;;;;;1.4;1.3;;;;;;;;;;;;;
2024/04/21 09:36:18;;;;;;;1.2;1.1;;;;;;;;;;;;;
2024/04/21 09:38:43;;;;;;;0.6;0.6;;;;;;;;;;;;;
2024/04/21 09:41:08;;;;;;;0.6;0.6;;;;;;;;;;;;;
2024/04/21 09:43:33;;;;;;;0.8;0.8;;;;;;;;;;;;;
2024/04/21 09:45:58;;;;;;;1.1;1;;;;;;;;;;;;;
2024/04/21 09:48:24;;;;;;;1;0.9;;;;;;;;;;;;;
2024/04/21 09:50:49;;;;;;;1.4;0.8;;;;;;;;;;;;;
2024/04/21 09:53:14;;;;;;;1.6;1;;;;;;;;;;;;;
2024/04/21 09:55:40;;;;;;;1.4;1;;;;;;;;;;;;;
2024/04/21 09:58:04;;;;;;;1.1;1;;;;;;;;;;;;;
2024/04/21 10:00:29;;;;;;;1.1;1;;;;;;;;;;;;;
2024/04/21 10:02:54;;;;;;;1.1;0.9;;;;;;;;;;;;;
2024/04/21 10:05:19;;;;;;;0.7;0.7;;;;;;;;;;;;;
2024/04/21 10:07:45;;;;;;;0.9;0.7;;;;;;;;;;;;;
2024/04/21 10:10:09;;;;;;;0.4;0.4;;;;;;;;;;;;;
2024/04/21 10:12:35;;;;;;;0.5;0.5;;;;;;;;;;;;;
2024/04/21 10:15:00;;;;;;;0.8;0.6;;;;;;;;;;;;;
2024/04/21 10:17:25;;;;;;;0.6;0.6;;;;;;;;;;;;;
2024/04/21 10:19:51;;;;;;;0.7;0.7;;;;;;;;;;;;;
2024/04/21 10:22:16;;;;;;;0.8;0.8;;;;;;;;;;;;;
2024/04/21 10:24:40;;;;;;;2.2;0.6;;;;;;;;;;;;;
2024/04/21 10:27:06;;;;;;;1.9;0.7;;;;;;;;;;;;;
2024/04/21 10:29:31;;;;;;;1.4;0.6;;;;;;;;;;;;;
2024/04/21 10:31:56;;;;;;;0.6;0.6;;;;;;;;;;;;;
2024/04/21 10:34:21;;;;;;;0.6;0.4;;;;;;;;;;;;;
2024/04/21 10:36:46;;;;;;;1.4;0.6;;;;;;;;;;;;;
2024/04/21 10:39:12;;;;;;;0.5;0.5;;;;;;;;;;;;;
2024/04/21 10:41:37;;;;;;;0.6;0.4;;;;;;;;;;;;;
2024/04/21 10:44:02;;;;;;;0.5;0.4;;;;;;;;;;;;;
2024/04/21 10:46:27;;;;;;;0.5;0.4;;;;;;;;;;;;;
2024/04/21 10:48:52;;;;;;;0.5;0.5;;;;;;;;;;;;;
2024/04/21 10:51:17;;;;;;;1;0.9;;;;;;;;;;;;;
2024/04/21 10:53:42;;;;;;;0.6;0.6;;;;;;;;;;;;;
2024/04/21 10:56:08;;;;;;;0.9;0.6;;;;;;;;;;;;;
2024/04/21 10:58:33;;;;;;;0.5;0.5;;;;;;;;;;;;;
2024/04/21 11:00:58;;;;;;;0.4;0.4;;;;;;;;;;;;;
2024/04/21 11:03:23;;;;;;;0.4;0.4;;;;;;;;;;;;;
2024/04/21 11:05:48;;;;;;;0.9;0.5;;;;;;;;;;;;;
2024/04/21 11:08:13;;;;;;;0.4;0.3;;;;;;;;;;;;;
2024/04/21 11:10:38;;;;;;;0.3;0.3;;;;;;;;;;;;;
2024/04/21 11:13:03;;;;;;;0.3;0.3;;;;;;;;;;;;;
2024/04/21 11:15:28;;;;;;;0.5;0.3;;;;;;;;;;;;;
2024/04/21 11:17:53;;;;;;;0.2;0.2;;;;;;;;;;;;;
2024/04/21 11:20:19;;;;;;;0.3;0.3;;;;;;;;;;;;;
2024/04/21 11:22:44;;;;;;;0.3;0.3;;;;;;;;;;;;;
2024/04/21 11:25:09;;;;;;;0.2;0.2;;;;;;;;;;;;;
2024/04/21 11:27:34;;;;;;;0.4;0.3;;;;;;;;;;;;;
2024/04/21 11:29:59;;;;;;;0.3;0.3;;;;;;;;;;;;;
2024/04/21 11:32:24;;;;;;;0.5;0.4;;;;;;;;;;;;;
2024/04/21 11:34:50;;;;;;;0.3;0.3;;;;;;;;;;;;;
2024/04/21 11:37:15;;;;;;;0.5;0.4;;;;;;;;;;;;;
2024/04/21 11:39:40;;;;;;;0.5;0.5;;;;;;;;;;;;;
2024/04/21 11:42:05;;;;;;;0.3;0.3;;;;;;;;;;;;;
2024/04/21 11:44:30;;;;;;;0.4;0.4;;;;;;;;;;;;;
2024/04/21 11:46:55;;;;;;;2.1;1.2;;;;;;;;;;;;;
2024/04/21 11:49:20;;;;;;;1.2;0.6;;;;;;;;;;;;;
2024/04/21 11:51:45;;;;;;;2.8;1.5;;;;;;;;;;;;;
2024/04/21 11:54:11;;;;;;;0.5;0.5;;;;;;;;;;;;;
2024/04/21 11:56:36;;;;;;;1;0.8;;;;;;;;;;;;;
2024/04/21 11:59:01;;;;;;;2.7;1.4;;;;;;;;;;;;;
2024/04/21 12:01:26;;;;;;;3.9;2.7;;;;;;;;;;;;;
2024/04/21 12:03:51;;;;;;;2.3;1.4;;;;;;;;;;;;;
2024/04/21 12:06:16;;;;;;;0.8;0.8;;;;;;;;;;;;;
2024/04/21 12:08:41;;;;;;;1;1;;;;;;;;;;;;;
2024/04/21 12:11:08;;;;;;;0.6;0.5;;;;;;;;;;;;;
2024/04/21 12:13:32;;;;;;;0.4;0.4;;;;;;;;;;;;;
2024/04/21 12:15:57;;;;;;;0.3;0.3;;;;;;;;;;;;;
2024/04/21 12:18:22;;;;;;;1;0.9;;;;;;;;;;;;;
2024/04/21 12:20:47;;;;;;;3.9;2.2;;;;;;;;;;;;;
2024/04/21 12:23:12;;;;;;;2.2;1.4;;;;;;;;;;;;;
2024/04/21 12:25:37;;;;;;;3.2;2.2;;;;;;;;;;;;;
2024/04/21 12:28:03;;;;;;;6.2;2.8;;;;;;;;;;;;;
2024/04/21 12:30:28;;;;;;;1.8;0.9;;;;;;;;;;;;;
2024/04/21 12:32:53;;;;;;;4.2;2;;;;;;;;;;;;;
2024/04/21 12:35:18;;;;;;;1.3;0.8;;;;;;;;;;;;;
2024/04/21 12:37:43;;;;;;;0.4;0.4;;;;;;;;;;;;;
2024/04/21 12:40:09;;;;;;;0.4;0.4;;;;;;;;;;;;;
2024/04/21 12:42:33;;;;;;;0.5;0.5;;;;;;;;;;;;;
2024/04/21 12:44:59;;;;;;;0.5;0.3;;;;;;;;;;;;;
2024/04/21 12:47:23;;;;;;;1.6;0.6;;;;;;;;;;;;;
2024/04/21 12:49:49;;;;;;;1.1;0.6;;;;;;;;;;;;;
2024/04/21 12:52:14;;;;;;;0.5;0.5;;;;;;;;;;;;;
2024/04/21 12:54:39;;;;;;;0.6;0.4;;;;;;;;;;;;;
2024/04/21 12:57:04;;;;;;;0.6;0.6;;;;;;;;;;;;;
2024/04/21 12:59:29;;;;;;;0.5;0.5;;;;;;;;;;;;;
2024/04/21 13:01:54;;;;;;;0.4;0.4;;;;;;;;;;;;;
2024/04/21 13:04:19;;;;;;;1.5;0.6;;;;;;;;;;;;;
2024/04/21 13:06:44;;;;;;;0.8;0.8;;;;;;;;;;;;;
2024/04/21 13:09:10;;;;;;;1.1;0.9;;;;;;;;;;;;;
2024/04/21 13:11:35;;;;;;;2.2;1.3;;;;;;;;;;;;;
2024/04/21 13:14:00;;;;;;;1.1;1;;;;;;;;;;;;;
2024/04/21 13:16:25;;;;;;;2.2;1.3;;;;;;;;;;;;;
2024/04/21 13:18:51;;;;;;;2.5;1.5;;;;;;;;;;;;;
2024/04/21 13:21:15;;;;;;;1.9;1.7;;;;;;;;;;;;;
2024/04/21 13:23:40;;;;;;;2.3;1.6;;;;;;;;;;;;;
2024/04/21 13:26:05;;;;;;;0.8;0.8;;;;;;;;;;;;;
2024/04/21 13:28:32;;;;;;;6.7;3.4;;;;;;;;;;;;;
2024/04/21 13:30:59;;;;;;;4.8;2.1;;;;;;;;;;;;;
2024/04/21 13:33:21;;;;;;;1.4;1;;;;;;;;;;;;;
2024/04/21 13:35:46;;;;;;;1.7;1.1;;;;;;;;;;;;;
2024/04/21 13:38:15;;;;;;;1.2;1;;;;;;;;;;;;;
2024/04/21 13:40:36;;;;;;;6.8;4.9;;;;;;;;;;;;;
2024/04/21 13:43:01;;;;;;;2.2;1.9;;;;;;;;;;;;;
2024/04/21 13:45:26;;;;;;;2.5;1.9;;;;;;;;;;;;;
2024/04/21 13:47:53;;;;;;;6.8;3.3;;;;;;;;;;;;;
2024/04/21 13:50:17;;;;;;;4.8;3.9;;;;;;;;;;;;;
2024/04/21 13:52:42;;;;;;;3.5;3.1;;;;;;;;;;;;;
2024/04/21 13:55:07;;;;;;;1.5;1.4;;;;;;;;;;;;;
2024/04/21 13:57:34;;;;;;;4.2;1.9;;;;;;;;;;;;;
2024/04/21 13:59:57;;;;;;;2.9;1.5;;;;;;;;;;;;;
2024/04/21 14:02:25;;;;;;;2.1;1.8;;;;;;;;;;;;;
2024/04/21 14:04:48;;;;;;;1.6;1.5;;;;;;;;;;;;;
2024/04/21 14:07:13;;;;;;;1.8;1.5;;;;;;;;;;;;;
2024/04/21 14:09:39;;;;;;;1.5;1.4;;;;;;;;;;;;;
2024/04/21 14:14:26;;;;;;;1.8;1.7;;;;;;;;;;;;;
2024/04/21 14:16:52;;;;;;;2.2;1.9;;;;;;;;;;;;;
2024/04/21 14:19:16;;;;;;;2.8;2.4;;;;;;;;;;;;;
2024/04/21 14:21:41;;;;;;;3.1;2.8;;;;;;;;;;;;;
2024/04/21 14:24:06;;;;;;;2.3;2.1;;;;;;;;;;;;;
2024/04/21 14:26:32;;;;;;;3.3;2;;;;;;;;;;;;;
2024/04/21 14:28:57;;;;;;;1.3;1.2;;;;;;;;;;;;;
2024/04/21 14:31:23;;;;;;;2.2;1.7;;;;;;;;;;;;;
2024/04/21 14:33:49;;;;;;;3.2;2;;;;;;;;;;;;;
2024/04/21 14:36:13;;;;;;;2.1;1.9;;;;;;;;;;;;;
2024/04/21 14:38:39;;;;;;;1.6;1.4;;;;;;;;;;;;;
2024/04/21 14:41:03;;;;;;;1.8;1.7;;;;;;;;;;;;;
2024/04/21 14:43:32;;;;;;;1;0.9;;;;;;;;;;;;;
2024/04/21 14:45:55;;;;;;;0.8;0.8;;;;;;;;;;;;;
2024/04/21 14:48:19;;;;;;;1.9;1.8;;;;;;;;;;;;;
2024/04/21 14:50:44;;;;;;;1.7;1.3;;;;;;;;;;;;;
2024/04/21 14:53:09;;;;;;;3.4;3;;;;;;;;;;;;;
2024/04/21 14:55:34;;;;;;;0.7;0.7;;;;;;;;;;;;;
2024/04/21 14:58:02;;;;;;;0.7;0.6;;;;;;;;;;;;;
2024/04/21 15:00:24;;;;;;;2.2;2;;;;;;;;;;;;;
2024/04/21 15:02:51;;;;;;;1.5;1.3;;;;;;;;;;;;;
2024/04/21 15:05:15;;;;;;;1.6;1.5;;;;;;;;;;;;;
2024/04/21 15:07:41;;;;;;;1.1;1;;;;;;;;;;;;;
2024/04/21 15:10:06;;;;;;;0.8;0.8;;;;;;;;;;;;;
2024/04/21 15:12:30;;;;;;;1.4;1;;;;;;;;;;;;;
2024/04/21 15:14:55;;;;;;;1.1;0.8;;;;;;;;;;;;;
2024/04/21 15:17:20;;;;;;;1.1;1;;;;;;;;;;;;;
2024/04/21 15:19:45;;;;;;;1.7;1.6;;;;;;;;;;;;;
2024/04/21 15:22:10;;;;;;;1.1;1;;;;;;;;;;;;;
2024/04/21 15:24:36;;;;;;;1.5;1.4;;;;;;;;;;;;;
2024/04/21 15:27:01;;;;;;;1.8;1.6;;;;;;;;;;;;;
2024/04/21 15:29:27;;;;;;;1.7;1.6;;;;;;;;;;;;;
2024/04/21 15:31:51;;;;;;;0.8;0.8;;;;;;;;;;;;;
2024/04/21 15:34:17;;;;;;;0.8;0.8;;;;;;;;;;;;;
2024/04/21 15:36:41;;;;;;;1.1;1;;;;;;;;;;;;;
2024/04/21 15:39:07;;;;;;;2;1.7;;;;;;;;;;;;;
2024/04/21 15:41:34;;;;;;;1.8;1.7;;;;;;;;;;;;;
2024/04/21 15:43:57;;;;;;;1.4;1.2;;;;;;;;;;;;;
2024/04/21 15:46:22;;;;;;;0.6;0.6;;;;;;;;;;;;;
2024/04/21 15:48:49;;;;;;;1.4;1.3;;;;;;;;;;;;;
2024/04/21 15:51:13;;;;;;;0.6;0.4;;;;;;;;;;;;;
2024/04/21 15:53:38;;;;;;;1.2;0.4;;;;;;;;;;;;;
2024/04/21 15:56:03;;;;;;;0.7;0.7;;;;;;;;;;;;;
2024/04/21 15:58:28;;;;;;;0.9;0.7;;;;;;;;;;;;;
2024/04/21 16:00:53;;;;;;;2.3;1.7;;;;;;;;;;;;;
2024/04/21 16:03:18;;;;;;;1.1;1.1;;;;;;;;;;;;;
2024/04/21 16:05:43;;;;;;;1.1;1;;;;;;;;;;;;;
2024/04/21 16:08:09;;;;;;;4;2.8;;;;;;;;;;;;;
2024/04/21 16:10:34;;;;;;;4.1;3;;;;;;;;;;;;;
2024/04/21 16:12:59;;;;;;;2.1;2;;;;;;;;;;;;;
2024/04/21 16:15:24;;;;;;;1.6;1.5;;;;;;;;;;;;;
2024/04/21 16:17:49;;;;;;;1.7;1.6;;;;;;;;;;;;;
2024/04/21 16:20:14;;;;;;;1.8;1.3;;;;;;;;;;;;;
2024/04/21 16:22:42;;;;;;;0.8;0.8;;;;;;;;;;;;;
2024/04/21 16:25:05;;;;;;;1.1;0.8;;;;;;;;;;;;;
2024/04/21 16:27:30;;;;;;;3.1;2.3;;;;;;;;;;;;;
2024/04/21 16:29:56;;;;;;;3.3;2.6;;;;;;;;;;;;;
2024/04/21 16:32:20;;;;;;;2.1;1.7;;;;;;;;;;;;;
2024/04/21 16:37:00;;;;;;;5.6;3.9;;;;;;;;;;;;;
2024/04/21 16:39:25;;;;;;;2.3;2.1;;;;;;;;;;;;;
2024/04/21 16:41:50;;;;;;;2.8;2.3;;;;;;;;;;;;;
2024/04/21 16:44:15;;;;;;;3.7;2.9;;;;;;;;;;;;;
2024/04/21 16:46:40;;;;;;;2.6;2;;;;;;;;;;;;;
2024/04/21 16:49:05;;;;;;;1.2;1.1;;;;;;;;;;;;;
2024/04/21 16:51:30;;;;;;;1.7;1.3;;;;;;;;;;;;;
2024/04/21 16:53:55;;;;;;;1.6;1.5;;;;;;;;;;;;;
2024/04/21 16:56:23;;;;;;;4.8;3.3;;;;;;;;;;;;;
2024/04/21 16:58:46;;;;;;;6.2;4.2;;;;;;;;;;;;;
2024/04/21 17:01:13;;;;;;;3.3;2.4;;;;;;;;;;;;;
2024/04/21 17:03:36;;;;;;;2.8;1.9;;;;;;;;;;;;;
2024/04/21 17:06:01;;;;;;;3.3;2.1;;;;;;;;;;;;;
2024/04/21 17:08:26;;;;;;;3;2;;;;;;;;;;;;;
2024/04/21 17:10:51;;;;;;;4.5;2.8;;;;;;;;;;;;;
2024/04/21 17:13:16;;;;;;;4.1;2.7;;;;;;;;;;;;;
2024/04/21 17:15:42;;;;;;;4.2;2.9;;;;;;;;;;;;;
2024/04/21 17:18:07;;;;;;;2.4;1.9;;;;;;;;;;;;;
2024/04/21 17:20:33;;;;;;;3.2;1.7;;;;;;;;;;;;;
2024/04/21 17:22:59;;;;;;;2.8;2.5;;;;;;;;;;;;;
2024/04/21 17:25:23;;;;;;;2.9;2.1;;;;;;;;;;;;;
2024/04/21 17:27:49;;;;;;;1.5;1.4;;;;;;;;;;;;;
2024/04/21 17:30:14;;;;;;;2.4;1.6;;;;;;;;;;;;;
2024/04/21 17:32:39;;;;;;;2.3;1.8;;;;;;;;;;;;;
2024/04/21 17:35:04;;;;;;;1.3;1.2;;;;;;;;;;;;;
2024/04/21 17:37:30;;;;;;;1.8;1.6;;;;;;;;;;;;;
2024/04/21 17:39:55;;;;;;;1.8;1.4;;;;;;;;;;;;;
2024/04/21 17:42:20;;;;;;;1.2;1.1;;;;;;;;;;;;;
2024/04/21 17:44:47;;;;;;;1.4;1.3;;;;;;;;;;;;;
2024/04/21 17:47:11;;;;;;;1.8;1.7;;;;;;;;;;;;;
2024/04/21 17:49:37;;;;;;;1;1;;;;;;;;;;;;;
2024/04/21 17:52:01;;;;;;;0.9;0.9;;;;;;;;;;;;;
2024/04/21 17:54:28;;;;;;;1.1;1;;;;;;;;;;;;;
2024/04/21 17:56:51;;;;;;;2.1;1.9;;;;;;;;;;;;;
2024/04/21 17:59:16;;;;;;;1.7;1.6;;;;;;;;;;;;;
2024/04/21 18:01:41;;;;;;;1.3;1.2;;;;;;;;;;;;;
2024/04/21 18:04:06;;;;;;;1.2;1.1;;;;;;;;;;;;;
2024/04/21 18:06:31;;;;;;;0.9;0.9;;;;;;;;;;;;;
2024/04/21 18:08:57;;;;;;;0.7;0.7;;;;;;;;;;;;;
2024/04/21 18:11:22;;;;;;;1;1;;;;;;;;;;;;;
2024/04/21 18:13:46;;;;;;;0.9;0.9;;;;;;;;;;;;;
2024/04/21 18:16:12;;;;;;;1.3;1.2;;;;;;;;;;;;;
2024/04/21 18:18:37;;;;;;;2.3;1.5;;;;;;;;;;;;;
2024/04/21 18:21:03;;;;;;;2;1.8;;;;;;;;;;;;;
2024/04/21 18:23:27;;;;;;;11.2;5.4;;;;;;;;;;;;;
2024/04/21 18:25:52;;;;;;;6.8;3.8;;;;;;;;;;;;;
2024/04/21 18:28:17;;;;;;;4.3;3;;;;;;;;;;;;;
2024/04/21 18:30:42;;;;;;;6.7;3.4;;;;;;;;;;;;;
2024/04/21 18:33:07;;;;;;;2.2;1.9;;;;;;;;;;;;;
2024/04/21 18:35:33;;;;;;;4.6;2.6;;;;;;;;;;;;;
2024/04/21 18:37:58;;;;;;;4.8;2.8;;;;;;;;;;;;;
2024/04/21 18:40:23;;;;;;;4.7;3.1;;;;;;;;;;;;;
2024/04/21 18:42:48;;;;;;;3.1;2.1;;;;;;;;;;;;;
2024/04/21 18:45:13;;;;;;;1.8;1.3;;;;;;;;;;;;;
2024/04/21 18:47:38;;;;;;;3.1;2.1;;;;;;;;;;;;;
2024/04/21 18:50:03;;;;;;;3.3;2;;;;;;;;;;;;;
2024/04/21 18:52:29;;;;;;;1.9;1.7;;;;;;;;;;;;;
2024/04/21 18:54:54;;;;;;;2.2;1.7;;;;;;;;;;;;;
2024/04/21 18:57:20;;;;;;;2.4;2;;;;;;;;;;;;;
2024/04/21 18:59:44;;;;;;;2.3;1.9;;;;;;;;;;;;;
2024/04/21 19:02:11;;;;;;;2.9;1.8;;;;;;;;;;;;;
2024/04/21 19:04:35;;;;;;;2.7;1.7;;;;;;;;;;;;;
2024/04/21 19:07:05;;;;;;;1.9;1.5;;;;;;;;;;;;;
2024/04/21 19:09:29;;;;;;;1.6;1.5;;;;;;;;;;;;;
2024/04/21 19:11:54;;;;;;;1.5;1.4;;;;;;;;;;;;;
2024/04/21 19:14:19;;;;;;;1.4;1.3;;;;;;;;;;;;;
2024/04/21 19:16:44;;;;;;;2.2;2;;;;;;;;;;;;;
2024/04/21 19:19:09;;;;;;;2.2;2;;;;;;;;;;;;;
2024/04/21 19:21:34;;;;;;;2.3;2.1;;;;;;;;;;;;;
2024/04/21 19:23:59;;;;;;;2;1.9;;;;;;;;;;;;;
2024/04/21 19:26:24;;;;;;;2;1.8;;;;;;;;;;;;;
2024/04/21 19:28:50;;;;;;;2.2;1.8;;;;;;;;;;;;;
2024/04/21 19:31:15;;;;;;;2.3;2.1;;;;;;;;;;;;;
2024/04/21 19:33:40;;;;;;;2.3;2.1;;;;;;;;;;;;;
2024/04/21 19:36:05;;;;;;;2.8;2.3;;;;;;;;;;;;;
2024/04/21 19:38:30;;;;;;;1.8;1.6;;;;;;;;;;;;;
2024/04/21 19:40:55;;;;;;;1.2;1.1;;;;;;;;;;;;;
2024/04/21 19:43:21;;;;;;;1.6;1.2;;;;;;;;;;;;;
2024/04/21 19:45:45;;;;;;;1.3;1.2;;;;;;;;;;;;;
2024/04/21 19:48:11;;;;;;;0.8;0.8;;;;;;;;;;;;;
2024/04/21 19:50:36;;;;;;;0.9;0.9;;;;;;;;;;;;;
2024/04/21 19:53:01;;;;;;;1;0.9;;;;;;;;;;;;;
2024/04/21 19:55:26;;;;;;;1.4;1;;;;;;;;;;;;;
2024/04/21 19:57:51;;;;;;;1;0.9;;;;;;;;;;;;;
2024/04/21 20:00:17;;;;;;;1.8;1.1;;;;;;;;;;;;;
2024/04/21 20:02:41;;;;;;;1.6;1.3;;;;;;;;;;;;;
2024/04/21 20:05:06;;;;;;;1;1;;;;;;;;;;;;;
2024/04/21 20:07:31;;;;;;;1.4;1.2;;;;;;;;;;;;;
2024/04/21 20:09:56;;;;;;;1.3;1.1;;;;;;;;;;;;;
2024/04/21 20:12:22;;;;;;;1.7;1.5;;;;;;;;;;;;;
2024/04/21 20:19:37;;;;;;;2.3;2;;;;;;;;;;;;;
2024/04/21 20:22:03;;;;;;;2.4;2.2;;;;;;;;;;;;;
2024/04/21 20:24:27;;;;;;;2.4;2.2;;;;;;;;;;;;;
2024/04/21 20:26:53;;;;;;;2.8;2.5;;;;;;;;;;;;;
2024/04/21 20:29:18;;;;;;;2.6;2.3;;;;;;;;;;;;;
2024/04/21 20:31:43;;;;;;;2.4;2.2;;;;;;;;;;;;;
2024/04/21 20:34:08;;;;;;;2.9;2.5;;;;;;;;;;;;;
2024/04/21 20:36:33;;;;;;;2.6;2.4;;;;;;;;;;;;;
2024/04/21 20:38:58;;;;;;;2.4;2.2;;;;;;;;;;;;;